createdAt,value
2023-01-20T00:03:24.843Z,71.54
2023-01-20T00:08:26.565Z,71.52
2023-01-20T00:13:29.131Z,71.52
2023-01-20T00:18:32.151Z,71.39
2023-01-20T00:23:34.259Z,71.59
2023-01-20T00:28:36.346Z,71.62
2023-01-20T00:33:38.101Z,71.79
2023-01-20T00:38:39.984Z,71.95
2023-01-20T00:43:42.473Z,71.98
2023-01-20T00:48:44.087Z,72.03
2023-01-20T00:53:45.848Z,72.30
2023-01-20T00:58:47.587Z,71.94
2023-01-20T01:03:49.304Z,71.88
2023-01-20T01:08:51.078Z,72.06
2023-01-20T01:13:55.748Z,72.12
2023-01-20T01:18:57.462Z,72.21
2023-01-20T01:23:59.593Z,72.40
2023-01-20T01:29:01.405Z,72.38
2023-01-20T01:34:03.062Z,72.42
2023-01-20T01:39:04.909Z,72.50
2023-01-20T01:44:06.787Z,72.46
2023-01-20T01:49:14.160Z,73.00
2023-01-20T01:54:21.917Z,73.02
2023-01-20T01:59:23.581Z,73.10
2023-01-20T02:04:27.948Z,73.28
2023-01-20T02:09:30.779Z,73.26
2023-01-20T02:14:41.286Z,73.39
2023-01-20T02:20:14.183Z,73.56
2023-01-20T02:25:29.430Z,73.56
2023-01-20T02:31:08.769Z,73.33
2023-01-20T02:36:15.254Z,73.17
2023-01-20T02:41:35.259Z,73.39
2023-01-20T02:46:43.712Z,73.60
2023-01-20T02:52:01.908Z,73.71
2023-01-20T02:57:09.119Z,73.70
2023-01-20T03:02:16.130Z,73.70
2023-01-20T03:07:21.818Z,73.87
2023-01-20T03:12:54.143Z,73.75
2023-01-20T03:17:58.583Z,73.74
2023-01-20T03:23:02.329Z,73.66
2023-01-20T03:28:04.205Z,73.85
2023-01-20T03:33:06.230Z,73.70
2023-01-20T03:38:08.891Z,73.85
2023-01-20T03:43:22.798Z,73.93
2023-01-20T03:48:30.567Z,73.93
2023-01-20T03:54:09.613Z,73.89
2023-01-20T03:59:14.556Z,73.79
2023-01-20T04:04:19.096Z,74.02
2023-01-20T04:09:26.858Z,73.93
2023-01-20T04:14:28.508Z,73.92
2023-01-20T04:19:30.438Z,73.86
2023-01-20T04:24:40.551Z,74.09
2023-01-20T04:29:42.892Z,74.37
2023-01-20T04:34:44.666Z,74.47
2023-01-20T04:39:46.337Z,74.45
2023-01-20T04:44:48.231Z,74.45
2023-01-20T04:49:50.223Z,74.72
2023-01-20T04:54:51.817Z,74.80
2023-01-20T04:59:53.464Z,74.77
2023-01-20T05:04:55.202Z,74.73
2023-01-20T05:09:57.024Z,74.60
2023-01-20T05:14:58.628Z,75.00
2023-01-20T05:20:00.417Z,74.98
2023-01-20T05:25:02.046Z,74.51
2023-01-20T05:30:06.235Z,74.51
2023-01-20T05:35:08.754Z,74.72
2023-01-20T05:40:11.376Z,74.92
2023-01-20T05:45:13.686Z,74.93
2023-01-20T05:50:15.864Z,74.87
2023-01-20T05:55:17.583Z,74.99
2023-01-20T06:00:19.909Z,75.02
2023-01-20T06:05:22.420Z,74.88
2023-01-20T06:10:30.664Z,74.70
2023-01-20T06:15:32.327Z,74.55
2023-01-20T06:20:34.025Z,74.80
2023-01-20T06:25:35.735Z,75.02
2023-01-20T06:30:38.116Z,76.16
2023-01-20T06:35:39.898Z,74.85
2023-01-20T06:40:41.548Z,74.50
2023-01-20T06:45:43.216Z,74.82
2023-01-20T06:50:44.906Z,74.45
2023-01-20T06:55:54.122Z,74.57
2023-01-20T07:00:56.830Z,74.76
2023-01-20T07:06:00.954Z,74.59
2023-01-20T07:11:02.663Z,74.72
2023-01-20T07:16:05.773Z,74.77
2023-01-20T07:21:11.619Z,74.91
2023-01-20T07:26:16.415Z,74.62
2023-01-20T07:31:21.554Z,74.68
2023-01-20T07:36:23.824Z,74.59
2023-01-20T07:41:25.799Z,74.74
2023-01-20T07:46:27.577Z,74.37
2023-01-20T07:51:29.312Z,75.01
2023-01-20T07:56:31.048Z,74.93
2023-01-20T08:01:33.194Z,74.96
2023-01-20T08:06:35.027Z,75.11
2023-01-20T08:11:36.788Z,75.38
2023-01-20T08:16:38.671Z,75.72
2023-01-20T08:21:40.324Z,76.06
2023-01-20T08:26:42.288Z,76.98
2023-01-20T08:31:44.098Z,77.54
2023-01-20T08:36:45.831Z,78.10
2023-01-20T08:41:48.359Z,78.27
2023-01-20T08:46:52.652Z,78.52
2023-01-20T08:51:55.354Z,79.15
2023-01-20T08:56:56.908Z,79.59
2023-01-20T09:01:58.515Z,79.41
2023-01-20T09:07:00.269Z,79.72
2023-01-20T09:12:03.344Z,80.54
2023-01-20T09:17:05.223Z,80.95
2023-01-20T09:22:06.934Z,81.24
2023-01-20T09:27:08.778Z,81.34
2023-01-20T09:32:12.958Z,82.17
2023-01-20T09:37:33.491Z,82.52
2023-01-20T09:43:23.550Z,83.22
2023-01-20T09:49:06.267Z,83.41
2023-01-20T09:54:23.412Z,83.57
2023-01-20T09:59:32.996Z,83.90
2023-01-20T10:04:46.695Z,83.77
2023-01-20T10:10:00.854Z,84.29
2023-01-20T10:15:15.787Z,84.63
2023-01-20T10:20:28.127Z,84.44
2023-01-20T10:25:33.500Z,84.49
2023-01-20T10:30:36.487Z,84.24
2023-01-20T10:35:48.019Z,84.03
2023-01-20T10:40:57.179Z,84.18
2023-01-20T10:46:01.836Z,84.20
2023-01-20T10:51:48.588Z,83.90
2023-01-20T10:56:55.570Z,84.24
2023-01-20T11:02:11.961Z,84.68
2023-01-20T11:07:18.925Z,85.05
2023-01-20T11:12:25.600Z,84.66
2023-01-20T11:17:27.332Z,84.61
2023-01-20T11:22:31.906Z,84.16
2023-01-20T11:27:45.839Z,84.65
2023-01-20T11:33:06.547Z,84.85
2023-01-20T11:38:26.139Z,84.96
2023-01-20T11:43:35.387Z,84.71
2023-01-20T11:48:37.092Z,84.97
2023-01-20T11:53:39.236Z,85.05
2023-01-20T11:58:55.371Z,85.09
2023-01-20T12:04:27.576Z,84.95
2023-01-20T12:09:40.051Z,84.95
2023-01-20T12:14:57.618Z,85.15
2023-01-20T12:20:10.829Z,85.09
2023-01-20T12:25:27.678Z,85.27
2023-01-20T12:30:47.782Z,85.85
2023-01-20T12:36:04.431Z,85.82
2023-01-20T12:41:13.488Z,85.68
2023-01-20T12:46:38.322Z,86.02
2023-01-20T12:52:00.950Z,85.94
2023-01-20T12:57:25.453Z,86.01
2023-01-20T13:02:58.545Z,85.90
2023-01-20T13:08:09.532Z,85.81
2023-01-20T13:13:29.739Z,85.73
2023-01-20T13:18:43.856Z,85.78
2023-01-20T13:23:47.075Z,85.47
2023-01-20T13:28:56.691Z,85.76
2023-01-20T13:34:23.480Z,85.87
2023-01-20T13:39:42.992Z,86.18
2023-01-20T13:44:45.697Z,86.24
2023-01-20T13:49:52.198Z,86.31
2023-01-20T13:54:53.874Z,86.25
2023-01-20T13:59:56.157Z,86.75
2023-01-20T14:04:58.748Z,86.27
2023-01-20T14:10:01.662Z,86.54
2023-01-20T14:15:03.670Z,86.87
2023-01-20T14:20:23.503Z,86.69
2023-01-20T14:25:26.827Z,87.21
2023-01-20T14:30:28.493Z,87.20
2023-01-20T14:35:33.484Z,87.53
2023-01-20T14:40:35.853Z,87.73
2023-01-20T14:45:37.935Z,87.83
2023-01-20T14:50:41.360Z,87.88
2023-01-20T14:55:56.218Z,87.69
2023-01-20T15:01:04.238Z,87.80
2023-01-20T15:06:09.248Z,87.85
2023-01-20T15:11:14.486Z,88.06
2023-01-20T15:16:46.659Z,87.70
2023-01-20T15:21:53.970Z,87.82
2023-01-20T15:26:58.187Z,87.74
2023-01-20T15:32:10.909Z,87.24
2023-01-20T15:37:17.057Z,87.32
2023-01-20T15:42:19.095Z,87.36
2023-01-20T15:47:27.127Z,87.22
2023-01-20T15:52:32.253Z,87.02
2023-01-20T15:57:34.063Z,86.94
2023-01-20T16:02:35.827Z,86.69
2023-01-20T16:07:38.521Z,86.56
2023-01-20T16:12:40.102Z,86.81
2023-01-20T16:17:42.448Z,87.04
2023-01-20T16:22:44.107Z,87.06
2023-01-20T16:27:45.992Z,87.02
2023-01-20T16:32:47.929Z,87.14
2023-01-20T16:37:49.722Z,87.42
2023-01-20T16:42:54.381Z,87.15
2023-01-20T16:47:56.913Z,86.60
2023-01-20T16:53:01.417Z,86.64
2023-01-20T16:58:03.105Z,86.25
2023-01-20T17:03:05.405Z,86.60
2023-01-20T17:08:07.188Z,86.37
2023-01-20T17:13:08.864Z,85.89
2023-01-20T17:18:10.573Z,85.21
2023-01-20T17:23:12.860Z,85.21
2023-01-20T17:28:14.669Z,84.96
2023-01-20T17:33:16.360Z,84.87
2023-01-20T17:38:18.154Z,84.65
2023-01-20T17:43:19.964Z,84.34
2023-01-20T17:48:21.809Z,84.45
2023-01-20T17:53:23.630Z,84.26
2023-01-20T17:58:25.342Z,83.98
2023-01-20T18:03:27.032Z,84.15
2023-01-20T18:08:28.697Z,84.08
2023-01-20T18:13:30.419Z,84.26
2023-01-20T18:18:32.094Z,84.15
2023-01-20T18:23:33.866Z,83.88
2023-01-20T18:28:36.216Z,84.01
2023-01-20T18:33:43.401Z,83.95
2023-01-20T18:38:49.676Z,83.73
2023-01-20T18:43:51.495Z,83.75
2023-01-20T18:48:54.583Z,83.66
2023-01-20T18:54:02.245Z,83.53
2023-01-20T18:59:05.454Z,83.55
2023-01-20T19:04:09.164Z,83.60
2023-01-20T19:09:11.650Z,83.74
2023-01-20T19:14:15.293Z,83.67
2023-01-20T19:19:20.017Z,84.13
2023-01-20T19:24:21.892Z,84.09
2023-01-20T19:29:23.630Z,83.84
2023-01-20T19:34:25.375Z,84.21
2023-01-20T19:39:27.598Z,84.40
2023-01-20T19:44:29.366Z,84.47
2023-01-20T19:49:31.234Z,84.30
2023-01-20T19:54:33.747Z,84.14
2023-01-20T19:59:35.767Z,84.31
2023-01-20T20:04:37.592Z,84.30
2023-01-20T20:09:39.278Z,84.22
2023-01-20T20:14:40.968Z,83.96
2023-01-20T20:19:42.595Z,83.88
2023-01-20T20:24:44.630Z,83.60
2023-01-20T20:29:46.316Z,83.73
2023-01-20T20:34:48.039Z,83.73
2023-01-20T20:39:49.750Z,83.68
2023-01-20T20:44:51.558Z,83.26
2023-01-20T20:49:53.216Z,83.15
2023-01-20T20:54:56.066Z,83.50
2023-01-20T20:59:59.668Z,83.62
2023-01-20T21:05:01.821Z,83.95
2023-01-20T21:10:04.957Z,83.74
2023-01-20T21:15:07.416Z,84.05
2023-01-20T21:20:10.290Z,84.41
2023-01-20T21:25:11.877Z,84.35
2023-01-20T21:30:13.784Z,84.30
2023-01-20T21:35:15.406Z,84.82
2023-01-20T21:40:17.509Z,84.72
2023-01-20T21:45:19.496Z,84.14
2023-01-20T21:50:39.773Z,84.20
2023-01-20T21:55:41.787Z,84.03
2023-01-20T22:00:43.703Z,84.57
2023-01-20T22:05:45.546Z,84.23
2023-01-20T22:10:55.513Z,84.25
2023-01-20T22:16:01.737Z,84.16
2023-01-20T22:21:05.499Z,84.45
2023-01-20T22:26:07.143Z,84.08
2023-01-20T22:31:11.873Z,84.16
2023-01-20T22:36:13.774Z,83.77
2023-01-20T22:41:15.924Z,84.29
2023-01-20T22:46:20.502Z,84.25
2023-01-20T22:51:24.876Z,83.69
2023-01-20T22:56:29.460Z,83.89
2023-01-20T23:01:33.553Z,83.86
2023-01-20T23:06:36.492Z,83.90
2023-01-20T23:11:39.876Z,83.89
2023-01-20T23:16:42.714Z,84.32
2023-01-20T23:21:44.571Z,84.45
2023-01-20T23:26:46.223Z,84.14
2023-01-20T23:31:47.983Z,83.70
2023-01-20T23:36:49.703Z,83.91
2023-01-20T23:41:51.527Z,84.31
2023-01-20T23:46:53.126Z,84.25
2023-01-20T23:51:55.072Z,84.04
2023-01-20T23:56:56.760Z,83.74
